createdAt,value
2018-08-03T00:01:56.155Z,85.70
2018-08-03T00:04:25.324Z,85.70
2018-08-03T00:06:54.491Z,85.60
2018-08-03T00:09:23.654Z,85.30
2018-08-03T00:11:52.859Z,85.30
2018-08-03T00:14:22.008Z,85.50
2018-08-03T00:16:51.154Z,86.00
2018-08-03T00:19:20.299Z,86.10
2018-08-03T00:21:49.434Z,86.30
2018-08-03T00:24:18.597Z,86.80
2018-08-03T00:26:47.839Z,86.40
2018-08-03T00:29:16.997Z,87.30
2018-08-03T00:31:46.158Z,86.60
2018-08-03T00:36:44.024Z,86.70
2018-08-03T00:39:13.190Z,86.50
2018-08-03T00:41:42.401Z,86.50
2018-08-03T00:44:11.591Z,86.70
2018-08-03T00:46:40.738Z,86.80
2018-08-03T00:49:09.886Z,86.90
2018-08-03T00:51:39.026Z,86.90
2018-08-03T00:54:08.174Z,87.00
2018-08-03T00:56:37.323Z,86.90
2018-08-03T00:59:06.468Z,87.30
2018-08-03T01:01:35.617Z,87.20
2018-08-03T01:04:04.781Z,87.10
2018-08-03T01:06:33.980Z,87.20
2018-08-03T01:09:03.884Z,87.80
2018-08-03T01:11:33.009Z,87.70
2018-08-03T01:14:02.140Z,87.70
2018-08-03T01:16:35.011Z,88.40
2018-08-03T01:19:04.149Z,88.80
2018-08-03T01:21:33.294Z,89.20
2018-08-03T01:24:02.695Z,89.40
2018-08-03T01:26:32.304Z,89.50
2018-08-03T01:29:01.733Z,89.60
2018-08-03T01:31:31.097Z,89.70
2018-08-03T01:34:00.682Z,89.70
2018-08-03T01:36:29.824Z,89.90
2018-08-03T01:38:58.974Z,89.80
2018-08-03T01:41:28.225Z,89.90
2018-08-03T01:43:57.419Z,90.00
2018-08-03T01:46:26.581Z,90.00
2018-08-03T01:48:55.749Z,90.20
2018-08-03T01:51:24.906Z,90.20
2018-08-03T01:53:54.057Z,90.60
2018-08-03T01:56:23.158Z,91.00
2018-08-03T01:58:52.293Z,91.00
2018-08-03T02:01:21.438Z,90.80
2018-08-03T02:03:50.585Z,90.50
2018-08-03T02:06:19.722Z,90.40
2018-08-03T02:08:48.829Z,90.30
2018-08-03T02:11:17.984Z,91.20
2018-08-03T02:13:47.105Z,91.20
2018-08-03T02:16:16.229Z,91.30
2018-08-03T02:18:45.363Z,91.60
2018-08-03T02:21:14.501Z,91.70
2018-08-03T02:23:43.684Z,91.80
2018-08-03T02:26:12.825Z,91.60
2018-08-03T02:28:41.981Z,91.40
2018-08-03T02:31:11.111Z,91.30
2018-08-03T02:33:40.293Z,91.10
2018-08-03T02:36:09.469Z,91.00
2018-08-03T02:38:38.590Z,91.50
2018-08-03T02:41:07.751Z,91.30
2018-08-03T02:43:36.926Z,91.20
2018-08-03T02:46:12.734Z,91.00
2018-08-03T02:48:41.863Z,91.00
2018-08-03T02:51:10.969Z,90.90
2018-08-03T02:53:40.111Z,90.70
2018-08-03T02:56:09.249Z,90.80
2018-08-03T02:58:38.377Z,90.80
2018-08-03T03:01:08.034Z,90.80
2018-08-03T03:03:37.182Z,90.80
2018-08-03T03:06:06.579Z,90.90
2018-08-03T03:08:35.702Z,91.30
2018-08-03T03:11:04.932Z,91.70
2018-08-03T03:13:34.061Z,91.80
2018-08-03T03:16:03.313Z,91.90
2018-08-03T03:18:32.429Z,92.00
2018-08-03T03:21:01.566Z,91.90
2018-08-03T03:23:30.759Z,92.00
2018-08-03T03:25:59.969Z,91.90
2018-08-03T03:28:29.100Z,92.00
2018-08-03T03:30:58.266Z,91.90
2018-08-03T03:33:27.422Z,92.00
2018-08-03T03:35:56.517Z,91.90
2018-08-03T03:38:25.695Z,92.00
2018-08-03T03:40:54.837Z,91.80
2018-08-03T03:43:23.984Z,91.60
2018-08-03T03:45:53.087Z,91.60
2018-08-03T03:48:22.270Z,91.40
2018-08-03T03:50:51.478Z,91.30
2018-08-03T03:53:20.657Z,91.40
2018-08-03T03:55:50.015Z,91.50
2018-08-03T03:58:19.185Z,91.60
2018-08-03T04:00:48.312Z,91.50
2018-08-03T04:03:17.433Z,91.40
2018-08-03T04:05:46.618Z,91.60
2018-08-03T04:08:15.796Z,91.70
2018-08-03T04:10:44.983Z,91.70
2018-08-03T04:13:14.106Z,91.70
2018-08-03T04:15:43.274Z,91.80
2018-08-03T04:18:20.617Z,91.90
2018-08-03T04:20:50.905Z,92.00
2018-08-03T04:23:20.491Z,92.40
2018-08-03T04:25:49.650Z,92.60
2018-08-03T04:28:18.780Z,92.40
2018-08-03T04:30:47.924Z,92.50
2018-08-03T04:33:17.118Z,92.50
2018-08-03T04:35:46.263Z,92.50
2018-08-03T04:38:15.435Z,92.50
2018-08-03T04:40:44.572Z,92.60
2018-08-03T04:43:13.716Z,92.90
2018-08-03T04:45:42.871Z,93.00
2018-08-03T04:48:12.669Z,93.10
2018-08-03T04:50:41.829Z,93.10
2018-08-03T04:53:10.940Z,93.00
2018-08-03T04:55:40.093Z,93.20
2018-08-03T04:58:09.221Z,93.30
2018-08-03T05:00:38.608Z,93.40
2018-08-03T05:03:07.738Z,93.60
2018-08-03T05:05:36.981Z,93.70
2018-08-03T05:10:34.874Z,93.70
2018-08-03T05:13:04.039Z,93.60
2018-08-03T05:15:33.304Z,93.60
2018-08-03T05:20:31.118Z,93.30
2018-08-03T05:23:00.474Z,93.20
2018-08-03T05:25:29.648Z,93.10
2018-08-03T05:27:58.811Z,93.00
2018-08-03T05:30:28.071Z,93.00
2018-08-03T05:32:57.158Z,92.80
2018-08-03T05:35:26.367Z,92.80
2018-08-03T05:37:55.704Z,92.90
2018-08-03T05:40:24.888Z,93.20
2018-08-03T05:42:53.997Z,93.20
2018-08-03T05:45:23.264Z,92.80
2018-08-03T05:47:52.474Z,92.50
2018-08-03T05:50:21.626Z,92.20
2018-08-03T05:52:50.738Z,92.00
2018-08-03T05:55:19.988Z,91.80
2018-08-03T05:57:49.216Z,91.80
2018-08-03T06:00:18.373Z,91.90
2018-08-03T06:02:47.824Z,91.90
2018-08-03T06:05:17.070Z,92.00
2018-08-03T06:07:46.274Z,92.30
2018-08-03T06:10:16.347Z,92.40
2018-08-03T06:12:45.567Z,92.40
2018-08-03T06:15:14.971Z,91.80
2018-08-03T06:17:44.140Z,91.80
2018-08-03T06:20:14.010Z,92.00
2018-08-03T06:22:44.245Z,92.20
2018-08-03T06:25:13.576Z,92.30
2018-08-03T06:27:43.494Z,92.00
2018-08-03T06:30:12.982Z,91.80
2018-08-03T06:32:42.121Z,91.80
2018-08-03T06:35:11.304Z,91.50
2018-08-03T06:37:40.542Z,91.20
2018-08-03T06:40:09.737Z,90.50
2018-08-03T06:42:38.938Z,90.20
2018-08-03T06:45:08.194Z,88.30
2018-08-03T06:47:37.810Z,87.60
2018-08-03T06:50:06.984Z,87.50
2018-08-03T06:55:05.132Z,86.00
2018-08-03T06:57:34.472Z,84.50
2018-08-03T07:00:04.502Z,82.40
2018-08-03T07:02:34.067Z,80.60
2018-08-03T07:05:03.265Z,77.60
2018-08-03T07:07:32.494Z,77.70
2018-08-03T07:12:30.386Z,76.40
2018-08-03T07:14:59.604Z,73.70
2018-08-03T07:17:28.721Z,72.10
2018-08-03T07:19:58.212Z,69.80
2018-08-03T07:22:27.276Z,68.70
2018-08-03T07:27:31.569Z,66.30
2018-08-03T07:30:00.746Z,65.70
2018-08-03T07:32:29.962Z,63.90
2018-08-03T07:34:59.138Z,62.50
2018-08-03T07:37:28.366Z,63.60
2018-08-03T07:39:57.679Z,61.80
2018-08-03T07:42:26.874Z,59.00
2018-08-03T07:44:56.042Z,58.20
2018-08-03T07:47:25.478Z,58.60
2018-08-03T07:49:54.612Z,56.70
2018-08-03T07:52:23.851Z,57.30
2018-08-03T07:54:52.969Z,55.80
2018-08-03T07:57:22.160Z,55.80
2018-08-03T07:59:51.443Z,55.00
2018-08-03T08:02:20.691Z,55.00
2018-08-03T08:04:50.347Z,55.60
2018-08-03T08:07:19.630Z,54.50
2018-08-03T08:09:48.778Z,53.80
2018-08-03T08:12:17.983Z,53.00
2018-08-03T08:14:47.169Z,53.50
2018-08-03T08:17:16.550Z,52.90
2018-08-03T08:19:45.699Z,52.10
2018-08-03T08:24:43.858Z,50.10
2018-08-03T08:27:13.156Z,49.10
2018-08-03T08:29:42.382Z,49.30
2018-08-03T08:32:11.592Z,48.40
2018-08-03T08:34:40.815Z,49.50
2018-08-03T08:37:10.313Z,49.80
2018-08-03T08:39:39.939Z,49.50
2018-08-03T08:42:09.054Z,50.50
2018-08-03T08:44:38.238Z,50.00
2018-08-03T08:47:07.487Z,50.60
2018-08-03T08:49:36.679Z,51.90
2018-08-03T08:52:05.945Z,52.60
2018-08-03T08:54:35.236Z,53.90
2018-08-03T08:57:04.425Z,58.10
2018-08-03T08:59:33.632Z,59.90
2018-08-03T09:02:03.773Z,62.50
2018-08-03T09:04:32.962Z,63.50
2018-08-03T09:07:02.289Z,64.40
2018-08-03T09:09:31.563Z,63.70
2018-08-03T09:12:00.797Z,63.80
2018-08-03T09:14:29.994Z,63.60
2018-08-03T09:16:59.201Z,63.40
2018-08-03T09:19:28.366Z,62.70
2018-08-03T09:21:57.593Z,64.10
2018-08-03T09:24:26.949Z,65.40
2018-08-03T09:26:56.110Z,65.80
2018-08-03T09:29:25.334Z,65.80
2018-08-03T09:31:54.509Z,66.00
2018-08-03T09:34:23.731Z,66.40
2018-08-03T09:36:52.926Z,67.10
2018-08-03T09:39:22.135Z,67.70
2018-08-03T09:41:51.331Z,68.80
2018-08-03T09:44:21.359Z,69.50
2018-08-03T09:46:50.575Z,69.30
2018-08-03T09:49:19.961Z,69.40
2018-08-03T09:51:49.351Z,69.40
2018-08-03T09:54:19.292Z,69.90
2018-08-03T09:56:48.454Z,69.10
2018-08-03T09:59:17.610Z,68.60
2018-08-03T10:01:46.937Z,69.30
2018-08-03T10:04:16.084Z,68.90
2018-08-03T10:06:45.317Z,68.80
2018-08-03T10:09:14.538Z,68.30
2018-08-03T10:11:43.693Z,67.90
2018-08-03T10:16:41.659Z,67.00
2018-08-03T10:19:10.847Z,66.80
2018-08-03T10:21:40.081Z,67.00
2018-08-03T10:24:09.281Z,67.10
2018-08-03T10:26:38.473Z,66.80
2018-08-03T10:29:08.645Z,66.40
2018-08-03T10:31:37.849Z,66.20
2018-08-03T10:34:07.106Z,65.70
2018-08-03T10:36:36.450Z,65.40
2018-08-03T10:39:07.749Z,65.40
2018-08-03T10:41:37.662Z,64.70
2018-08-03T10:44:07.185Z,64.40
2018-08-03T10:46:36.346Z,65.90
2018-08-03T10:49:05.649Z,66.10
2018-08-03T10:51:34.843Z,66.10
2018-08-03T10:54:04.039Z,65.30
2018-08-03T10:56:33.189Z,64.70
2018-08-03T10:59:02.423Z,64.70
2018-08-03T11:01:31.768Z,64.70
2018-08-03T11:04:00.864Z,64.80
2018-08-03T11:06:30.085Z,63.80
2018-08-03T11:08:59.212Z,64.10
2018-08-03T11:11:28.438Z,64.00
2018-08-03T11:13:57.734Z,63.50
2018-08-03T11:16:27.122Z,62.90
2018-08-03T11:18:56.427Z,62.00
2018-08-03T11:21:25.568Z,61.80
2018-08-03T11:23:54.868Z,61.20
2018-08-03T11:26:24.062Z,60.70
2018-08-03T11:31:22.112Z,59.80
2018-08-03T11:33:51.306Z,59.40
2018-08-03T11:36:20.493Z,59.30
2018-08-03T11:38:49.693Z,59.20
2018-08-03T11:41:19.124Z,59.10
2018-08-03T11:43:48.314Z,59.20
2018-08-03T11:46:17.521Z,58.60
2018-08-03T11:48:48.396Z,58.20
2018-08-03T11:51:17.570Z,58.10
2018-08-03T11:53:46.749Z,58.10
2018-08-03T11:56:15.937Z,57.80
2018-08-03T11:58:45.114Z,56.90
2018-08-03T12:01:14.270Z,56.30
2018-08-03T12:03:43.462Z,56.40
2018-08-03T12:06:12.642Z,56.50
2018-08-03T12:08:41.849Z,57.20
2018-08-03T12:11:11.037Z,56.80
2018-08-03T12:13:40.357Z,56.70
2018-08-03T12:16:09.591Z,56.50
2018-08-03T12:18:38.739Z,56.40
2018-08-03T12:21:07.941Z,56.20
2018-08-03T12:23:37.230Z,56.90
2018-08-03T12:26:06.310Z,56.30
2018-08-03T12:28:35.475Z,56.10
2018-08-03T12:31:04.637Z,56.20
2018-08-03T12:33:33.869Z,56.50
2018-08-03T12:36:03.709Z,55.70
2018-08-03T12:38:32.907Z,55.40
2018-08-03T12:41:02.085Z,55.20
2018-08-03T12:43:32.160Z,54.80
2018-08-03T12:46:01.347Z,54.70
2018-08-03T12:48:30.483Z,54.30
2018-08-03T12:50:59.699Z,54.70
2018-08-03T12:53:28.885Z,54.50
2018-08-03T12:55:58.129Z,54.00
2018-08-03T12:58:27.287Z,53.50
2018-08-03T13:00:56.423Z,52.70
2018-08-03T13:03:25.626Z,52.90
2018-08-03T13:05:54.944Z,52.10
2018-08-03T13:10:52.830Z,52.70
2018-08-03T13:13:22.056Z,52.50
2018-08-03T13:15:51.178Z,52.80
2018-08-03T13:18:20.362Z,53.60
2018-08-03T13:20:49.486Z,53.40
2018-08-03T13:23:18.693Z,53.50
2018-08-03T13:25:47.840Z,54.20
2018-08-03T13:28:17.039Z,53.80
2018-08-03T13:30:46.278Z,54.50
2018-08-03T13:33:15.524Z,53.00
2018-08-03T13:35:44.636Z,52.80
2018-08-03T13:38:14.530Z,53.20
2018-08-03T13:40:43.882Z,52.90
2018-08-03T13:43:13.082Z,52.50
2018-08-03T13:45:43.284Z,53.00
2018-08-03T13:48:12.461Z,53.00
2018-08-03T13:50:41.668Z,52.30
2018-08-03T13:53:10.846Z,52.60
2018-08-03T13:55:40.011Z,52.30
2018-08-03T13:58:10.365Z,51.30
2018-08-03T14:00:39.518Z,50.70
2018-08-03T14:03:08.756Z,50.30
2018-08-03T14:05:37.972Z,50.40
2018-08-03T14:08:07.220Z,50.50
2018-08-03T14:10:36.377Z,50.00
2018-08-03T14:13:05.853Z,50.40
2018-08-03T14:15:35.003Z,50.60
2018-08-03T14:18:04.300Z,51.30
2018-08-03T14:20:33.519Z,50.90
2018-08-03T14:23:02.732Z,50.60
2018-08-03T14:25:31.984Z,50.60
2018-08-03T14:28:01.181Z,51.40
2018-08-03T14:30:30.378Z,51.90
2018-08-03T14:32:59.561Z,52.10
2018-08-03T14:35:28.794Z,52.80
2018-08-03T14:37:58.030Z,52.60
2018-08-03T14:40:27.380Z,52.90
2018-08-03T14:42:56.613Z,53.10
2018-08-03T14:45:25.876Z,52.80
2018-08-03T14:47:55.107Z,52.30
2018-08-03T14:50:24.686Z,51.90
2018-08-03T14:52:53.831Z,51.90
2018-08-03T14:55:23.281Z,51.80
2018-08-03T14:57:52.446Z,51.80
2018-08-03T15:00:21.677Z,52.00
2018-08-03T15:02:50.842Z,52.00
2018-08-03T15:05:20.274Z,51.10
2018-08-03T15:07:49.586Z,51.20
2018-08-03T15:10:18.681Z,50.40
2018-08-03T15:12:47.872Z,49.30
2018-08-03T15:15:17.100Z,49.60
2018-08-03T15:17:46.285Z,50.20
2018-08-03T15:20:15.499Z,51.00
2018-08-03T15:22:44.634Z,51.10
2018-08-03T15:25:13.854Z,51.20
2018-08-03T15:27:43.107Z,51.10
2018-08-03T15:30:12.750Z,51.50
2018-08-03T15:32:42.021Z,51.40
2018-08-03T15:35:11.223Z,51.40
2018-08-03T15:37:40.458Z,51.30
2018-08-03T15:40:09.712Z,51.50
2018-08-03T15:42:38.930Z,51.50
2018-08-03T15:45:08.623Z,51.80
2018-08-03T15:47:37.914Z,51.20
2018-08-03T15:50:07.260Z,51.80
2018-08-03T15:52:36.459Z,51.60
2018-08-03T15:55:05.644Z,50.30
2018-08-03T15:57:34.866Z,50.80
2018-08-03T16:00:05.138Z,51.50
2018-08-03T16:02:34.403Z,52.00
2018-08-03T16:05:03.654Z,51.60
2018-08-03T16:10:01.646Z,51.80
2018-08-03T16:12:30.829Z,51.50
2018-08-03T16:15:00.063Z,51.60
2018-08-03T16:17:29.252Z,51.40
2018-08-03T16:19:58.577Z,51.40
2018-08-03T16:22:28.010Z,51.40
2018-08-03T16:24:57.173Z,51.50
2018-08-03T16:27:26.366Z,51.80
2018-08-03T16:29:55.544Z,52.10
2018-08-03T16:32:24.723Z,51.50
2018-08-03T16:34:53.918Z,51.50
2018-08-03T16:37:23.346Z,51.40
2018-08-03T16:42:21.323Z,51.20
2018-08-03T16:44:50.557Z,50.70
2018-08-03T16:47:19.734Z,50.30
2018-08-03T16:49:49.032Z,50.00
2018-08-03T16:52:18.310Z,50.00
2018-08-03T16:54:47.581Z,50.20
2018-08-03T16:57:16.809Z,50.00
2018-08-03T16:59:45.954Z,50.40
2018-08-03T17:02:15.398Z,50.70
2018-08-03T17:04:44.672Z,50.80
2018-08-03T17:07:13.908Z,51.30
2018-08-03T17:09:43.076Z,51.30
2018-08-03T17:12:12.289Z,51.00
2018-08-03T17:14:41.545Z,51.50
2018-08-03T17:17:10.677Z,51.30
2018-08-03T17:19:39.872Z,51.10
2018-08-03T17:22:09.070Z,51.40
2018-08-03T17:24:38.314Z,52.10
2018-08-03T17:27:07.528Z,51.50
2018-08-03T17:29:36.747Z,51.70
2018-08-03T17:32:05.963Z,51.50
2018-08-03T17:34:35.093Z,51.10
2018-08-03T17:37:04.344Z,51.10
2018-08-03T17:39:33.550Z,51.10
2018-08-03T17:42:02.749Z,51.70
2018-08-03T17:44:31.910Z,51.50
2018-08-03T17:47:01.111Z,51.00
2018-08-03T17:49:30.309Z,51.20
2018-08-03T17:51:59.501Z,51.10
2018-08-03T17:54:28.677Z,51.40
2018-08-03T17:56:57.819Z,51.50
2018-08-03T17:59:27.792Z,51.50
2018-08-03T18:01:56.954Z,51.50
2018-08-03T18:04:26.530Z,51.50
2018-08-03T18:06:55.718Z,51.40
2018-08-03T18:09:25.423Z,50.70
2018-08-03T18:11:54.604Z,50.90
2018-08-03T18:14:23.837Z,51.20
2018-08-03T18:16:53.073Z,51.30
2018-08-03T18:19:22.313Z,51.30
2018-08-03T18:21:51.571Z,52.20
2018-08-03T18:24:20.806Z,51.80
2018-08-03T18:26:50.577Z,51.90
2018-08-03T18:29:19.796Z,51.60
2018-08-03T18:31:48.881Z,52.00
2018-08-03T18:34:18.081Z,51.60
2018-08-03T18:36:47.665Z,52.10
2018-08-03T18:39:16.848Z,52.20
2018-08-03T18:41:46.005Z,52.60
2018-08-03T18:44:15.450Z,52.40
2018-08-03T18:46:44.637Z,53.00
2018-08-03T18:49:13.755Z,53.00
2018-08-03T18:51:42.869Z,53.60
2018-08-03T18:54:12.113Z,55.20
2018-08-03T18:56:41.419Z,55.70
2018-08-03T18:59:10.613Z,56.10
2018-08-03T19:01:39.825Z,56.50
2018-08-03T19:04:09.029Z,56.60
2018-08-03T19:06:38.166Z,56.60
2018-08-03T19:09:08.081Z,57.30
2018-08-03T19:11:37.232Z,57.70
2018-08-03T19:14:06.625Z,57.90
2018-08-03T19:16:39.402Z,58.20
2018-08-03T19:19:08.566Z,57.70
2018-08-03T19:21:37.746Z,57.80
2018-08-03T19:24:06.949Z,58.20
2018-08-03T19:26:36.845Z,58.60
2018-08-03T19:29:06.033Z,58.80
2018-08-03T19:31:35.209Z,58.50
2018-08-03T19:36:33.114Z,58.70
2018-08-03T19:39:02.295Z,59.20
2018-08-03T19:41:31.430Z,59.60
2018-08-03T19:44:00.620Z,59.70
2018-08-03T19:46:29.761Z,59.90
2018-08-03T19:48:58.914Z,60.30
2018-08-03T19:51:28.134Z,60.90
2018-08-03T19:53:57.281Z,61.00
2018-08-03T19:56:28.083Z,61.30
2018-08-03T19:58:58.449Z,62.30
2018-08-03T20:01:27.642Z,62.00
2018-08-03T20:03:56.886Z,62.40
2018-08-03T20:06:26.741Z,62.50
2018-08-03T20:08:56.927Z,63.10
2018-08-03T20:11:26.051Z,62.90
2018-08-03T20:13:55.301Z,63.10
2018-08-03T20:16:25.341Z,63.20
2018-08-03T20:18:54.529Z,63.70
2018-08-03T20:21:23.677Z,64.10
2018-08-03T20:23:52.838Z,64.30
2018-08-03T20:26:21.985Z,64.40
2018-08-03T20:28:51.265Z,64.80
2018-08-03T20:31:20.522Z,65.60
2018-08-03T20:33:50.072Z,65.50
2018-08-03T20:36:19.940Z,66.40
2018-08-03T20:38:49.064Z,66.40
2018-08-03T20:41:18.246Z,66.90
2018-08-03T20:43:47.443Z,66.60
2018-08-03T20:46:16.587Z,67.10
2018-08-03T20:48:45.766Z,67.00
2018-08-03T20:51:15.032Z,67.60
2018-08-03T20:53:44.166Z,67.50
2018-08-03T20:56:13.347Z,67.90
2018-08-03T20:58:42.448Z,67.80
2018-08-03T21:01:11.591Z,69.00
2018-08-03T21:03:40.690Z,68.40
2018-08-03T21:06:09.892Z,68.00
2018-08-03T21:08:39.045Z,68.10
2018-08-03T21:11:08.219Z,68.40
2018-08-03T21:16:06.079Z,68.70
2018-08-03T21:18:35.292Z,68.80
2018-08-03T21:21:04.444Z,69.40
2018-08-03T21:23:34.040Z,69.20
2018-08-03T21:26:03.470Z,69.50
2018-08-03T21:28:32.644Z,69.40
2018-08-03T21:31:01.918Z,69.80
2018-08-03T21:33:31.700Z,69.70
2018-08-03T21:36:00.888Z,69.50
2018-08-03T21:38:30.013Z,69.40
2018-08-03T21:41:00.614Z,69.60
2018-08-03T21:43:29.852Z,69.70
2018-08-03T21:45:58.994Z,70.70
2018-08-03T21:48:28.645Z,69.90
2018-08-03T21:50:57.802Z,69.80
2018-08-03T21:53:27.509Z,69.80
2018-08-03T21:55:56.770Z,70.00
2018-08-03T21:58:26.025Z,70.30
2018-08-03T22:00:56.056Z,70.20
2018-08-03T22:03:25.318Z,69.80
2018-08-03T22:05:54.489Z,70.60
2018-08-03T22:08:23.625Z,70.40
2018-08-03T22:10:52.826Z,70.50
2018-08-03T22:13:21.973Z,70.50
2018-08-03T22:15:51.114Z,70.70
2018-08-03T22:18:20.365Z,71.20
2018-08-03T22:20:49.551Z,71.30
2018-08-03T22:23:18.777Z,71.50
2018-08-03T22:25:47.949Z,71.80
2018-08-03T22:28:17.121Z,72.30
2018-08-03T22:30:46.328Z,72.40
2018-08-03T22:33:15.488Z,72.40
2018-08-03T22:35:44.661Z,72.60
2018-08-03T22:38:13.915Z,72.90
2018-08-03T22:40:43.054Z,72.80
2018-08-03T22:43:12.208Z,72.90
2018-08-03T22:45:41.440Z,72.40
2018-08-03T22:48:10.522Z,72.70
2018-08-03T22:50:39.704Z,71.50
2018-08-03T22:53:09.095Z,70.70
2018-08-03T22:55:38.241Z,70.80
2018-08-03T22:58:07.391Z,71.40
2018-08-03T23:00:36.529Z,71.20
2018-08-03T23:03:05.794Z,71.90
2018-08-03T23:05:34.935Z,71.50
2018-08-03T23:08:04.111Z,71.80
2018-08-03T23:10:33.240Z,71.50
2018-08-03T23:13:02.378Z,71.40
2018-08-03T23:15:31.534Z,71.70
2018-08-03T23:18:00.647Z,72.20
2018-08-03T23:20:29.794Z,72.90
2018-08-03T23:22:58.931Z,73.30
2018-08-03T23:25:28.049Z,73.60
2018-08-03T23:27:57.582Z,74.40
2018-08-03T23:30:26.797Z,75.10
2018-08-03T23:32:55.931Z,74.90
2018-08-03T23:35:25.144Z,75.20
2018-08-03T23:37:54.353Z,75.50
2018-08-03T23:40:23.469Z,75.80
2018-08-03T23:42:52.602Z,75.70
2018-08-03T23:45:21.734Z,76.20
2018-08-03T23:47:50.915Z,76.60
2018-08-03T23:50:20.034Z,76.70
2018-08-03T23:52:49.811Z,77.10
2018-08-03T23:55:18.962Z,77.20
2018-08-03T23:57:48.143Z,77.30
